Time;durP1;ratioP1;P1;durP2;ratioP2;P2;SDS_P1;SDS_P2;PMS_P1;PMS_P2;Temp;Humidity;BMP_temperature;BMP_pressure;BME280_temperature;BME280_humidity;BME280_pressure;Samples;Min_cycle;Max_cycle;Signal;HPM_P1;HPM_P2
2022/01/14 00:00:17;;;;;;;105.82;31.58;;;;;;;7.61;69.70;103774.59;5253232;28;20467;-44
2022/01/14 00:02:50;;;;;;;100.33;32.30;;;;;;;7.63;69.77;103774.56;5244575;28;20419;-44
2022/01/14 00:05:22;;;;;;;103.78;31.80;;;;;;;7.66;69.68;103773.59;5252154;28;20398;-43
2022/01/14 00:07:54;;;;;;;99.63;30.52;;;;;;;7.64;69.68;103771.00;5250969;28;20398;-44
2022/01/14 00:10:30;;;;;;;86.93;31.77;;;;;;;7.62;69.79;103773.72;5247581;28;20771;-45
2022/01/14 00:13:12;;;;;;;102.97;32.28;;;;;;;7.62;69.71;103768.44;5247590;28;20504;-46
2022/01/14 00:15:45;;;;;;;104.90;30.90;;;;;;;7.63;69.74;103777.19;5251166;28;20468;-43
2022/01/14 00:18:17;;;;;;;85.05;30.20;;;;;;;7.59;69.76;103775.59;5245015;28;20421;-44
2022/01/14 00:20:49;;;;;;;79.25;29.70;;;;;;;7.52;69.80;103766.22;5248795;28;20790;-44
2022/01/14 00:23:27;;;;;;;93.75;31.48;;;;;;;7.43;69.90;103766.56;5249011;28;20422;-43
2022/01/14 00:31:56;;;;;;;99.10;31.48;;;;;;;7.50;69.78;103762.81;5205201;28;20400;-44
2022/01/14 00:34:29;;;;;;;94.00;31.38;;;;;;;7.51;69.93;103765.38;5232195;28;20403;-44
2022/01/14 00:37:01;;;;;;;96.70;31.48;;;;;;;7.54;69.86;103756.50;5247697;28;20414;-44
2022/01/14 00:39:33;;;;;;;97.55;33.45;;;;;;;7.54;69.82;103748.63;5239172;28;20899;-45
2022/01/14 00:42:09;;;;;;;90.88;32.00;;;;;;;7.52;69.86;103735.50;5245302;28;20924;-44
2022/01/14 00:44:41;;;;;;;96.83;32.67;;;;;;;7.55;69.95;103729.28;5238127;28;20406;-44
2022/01/14 00:47:14;;;;;;;107.10;33.97;;;;;;;7.54;69.92;103725.78;5245472;28;20426;-47
2022/01/14 00:49:46;;;;;;;103.57;31.65;;;;;;;7.58;69.87;103734.41;5245309;28;20855;-43
2022/01/14 00:52:18;;;;;;;98.60;33.55;;;;;;;7.62;69.86;103730.78;5249526;28;20410;-43
2022/01/14 00:54:51;;;;;;;98.88;32.60;;;;;;;7.66;69.87;103736.78;5249368;28;20415;-43
2022/01/14 00:59:14;;;;;;;98.10;33.13;;;;;;;7.69;69.76;103740.13;5241288;28;20843;-43
2022/01/14 01:00:25;;;;;;;108.80;33.47;;;;;;;7.71;69.76;103733.06;5244162;28;20430;-43
2022/01/14 01:02:57;;;;;;;97.65;31.80;;;;;;;7.71;69.78;103735.69;5246907;28;20746;-44
2022/01/14 01:05:30;;;;;;;81.95;30.52;;;;;;;7.75;69.77;103732.00;5248040;28;20398;-48
2022/01/14 01:08:08;;;;;;;104.93;32.90;;;;;;;7.76;69.81;103728.44;5239974;28;20413;-51
2022/01/14 01:10:47;;;;;;;81.53;30.98;;;;;;;7.75;69.72;103732.00;5250184;28;20470;-44
2022/01/14 01:13:24;;;;;;;93.53;32.88;;;;;;;7.74;69.71;103732.94;5248299;28;20418;-48
2022/01/14 01:15:57;;;;;;;93.18;32.55;;;;;;;7.75;69.74;103733.78;5245739;28;20437;-43
2022/01/14 01:18:30;;;;;;;91.65;31.77;;;;;;;7.75;69.56;103732.00;5246123;28;20420;-48
2022/01/14 01:21:02;;;;;;;91.95;31.70;;;;;;;7.76;69.67;103736.34;5234905;28;20800;-48
2022/01/14 01:23:35;;;;;;;98.32;34.38;;;;;;;7.76;69.70;103727.59;5247881;28;20440;-44
2022/01/14 01:26:13;;;;;;;94.18;35.63;;;;;;;7.71;69.68;103727.78;5248143;28;20775;-43
2022/01/14 01:28:59;;;;;;;96.38;33.95;;;;;;;7.61;69.76;103710.63;5242625;28;20440;-44
2022/01/14 01:31:42;;;;;;;102.80;33.83;;;;;;;7.67;69.64;103723.53;5243695;28;20975;-44
2022/01/14 01:34:17;;;;;;;93.95;33.47;;;;;;;7.65;69.74;103721.88;5238399;28;20451;-44
2022/01/14 01:36:52;;;;;;;95.95;32.20;;;;;;;7.56;69.66;103721.34;5245606;28;20436;-45
2022/01/14 01:39:28;;;;;;;98.45;31.45;;;;;;;7.61;69.76;103713.25;5246952;28;20411;-44
2022/01/14 01:42:06;;;;;;;88.32;30.60;;;;;;;7.59;69.79;103704.59;5243141;28;20421;-44
2022/01/14 01:44:43;;;;;;;85.97;30.65;;;;;;;7.53;69.54;103710.09;5246359;28;20398;-44
2022/01/14 01:47:15;;;;;;;94.30;33.58;;;;;;;7.48;69.85;103704.13;5246925;28;20435;-43
2022/01/14 01:49:48;;;;;;;114.20;37.13;;;;;;;7.46;69.75;103708.59;5247637;28;20752;-45
2022/01/14 01:52:20;;;;;;;137.38;39.17;;;;;;;7.43;69.84;103708.72;5241334;28;20416;-44
2022/01/14 01:54:53;;;;;;;137.50;38.03;;;;;;;7.43;69.79;103713.97;5248437;28;20422;-43
2022/01/14 01:57:25;;;;;;;144.45;40.00;;;;;;;7.43;69.88;103706.06;5248855;28;20402;-43
2022/01/14 01:59:59;;;;;;;146.80;39.42;;;;;;;7.43;69.92;103708.72;5247298;28;20410;-43
2022/01/14 02:02:31;;;;;;;142.70;38.10;;;;;;;7.45;69.83;103712.16;5242057;28;20422;-43
2022/01/14 02:05:05;;;;;;;144.45;37.17;;;;;;;7.43;69.91;103703.44;5239535;28;20868;-44
2022/01/14 02:07:41;;;;;;;147.90;35.35;;;;;;;7.42;69.92;103723.63;5245978;28;20519;-43
2022/01/14 02:10:13;;;;;;;163.18;38.97;;;;;;;7.39;69.83;103714.09;5243000;28;20424;-43
2022/01/14 02:12:51;;;;;;;191.75;39.47;;;;;;;7.38;69.86;103712.38;5241476;28;20780;-47
2022/01/14 02:24:21;;;;;;;254.25;44.80;;;;;;;7.37;69.91;103705.41;5243410;28;20783;-44
2022/01/14 02:26:54;;;;;;;181.27;37.90;;;;;;;7.37;69.97;103710.69;5246735;28;20475;-44
2022/01/14 02:29:27;;;;;;;206.67;42.23;;;;;;;7.35;69.98;103701.13;5235396;28;20893;-43
2022/01/14 02:32:00;;;;;;;218.00;41.45;;;;;;;7.38;69.90;103707.13;5246729;28;20398;-50
2022/01/14 02:34:32;;;;;;;219.98;42.20;;;;;;;7.29;69.98;103694.31;5242629;28;20414;-47
2022/01/14 02:37:07;;;;;;;187.60;38.92;;;;;;;7.38;69.92;103696.59;5245492;28;20955;-44
2022/01/14 02:39:40;;;;;;;172.68;38.60;;;;;;;7.37;69.94;103705.41;5244001;28;20445;-45
2022/01/14 02:42:12;;;;;;;189.27;40.30;;;;;;;7.35;69.96;103701.97;5246593;28;20820;-46
2022/01/14 02:44:48;;;;;;;225.48;43.28;;;;;;;7.35;69.94;103712.50;5250039;28;20863;-44
2022/01/14 02:47:20;;;;;;;220.32;43.83;;;;;;;7.36;69.94;103713.34;5249280;28;20474;-44
2022/01/14 02:49:53;;;;;;;186.93;39.00;;;;;;;7.36;69.93;103711.56;5245663;28;20821;-43
2022/01/14 02:52:41;;;;;;;307.83;45.83;;;;;;;7.36;69.92;103703.69;5248292;28;20406;-43
2022/01/14 02:55:18;;;;;;;202.10;38.57;;;;;;;7.35;69.84;103696.72;5245667;28;20390;-44
2022/01/14 02:57:52;;;;;;;221.77;42.17;;;;;;;7.32;69.97;103699.47;5241768;28;20836;-50
2022/01/14 03:00:29;;;;;;;233.43;40.33;;;;;;;7.30;70.01;103711.81;5236706;28;20427;-44
2022/01/14 03:03:02;;;;;;;175.85;36.25;;;;;;;7.30;70.00;103705.69;5244463;28;20613;-45
2022/01/14 03:05:34;;;;;;;199.68;38.45;;;;;;;7.32;69.87;103707.34;5243369;28;20461;-44
2022/01/14 03:08:08;;;;;;;160.20;33.10;;;;;;;7.29;69.95;103696.97;5243649;28;20398;-44
2022/01/14 03:10:41;;;;;;;179.15;37.08;;;;;;;7.25;70.19;103705.88;5242785;28;20420;-44
2022/01/14 03:13:14;;;;;;;199.60;38.83;;;;;;;7.26;70.17;103699.69;5239497;28;20430;-43
2022/01/14 03:15:46;;;;;;;142.68;37.00;;;;;;;7.25;70.06;103699.78;5247554;28;20532;-44
2022/01/14 03:18:28;;;;;;;126.68;34.72;;;;;;;7.23;70.03;103707.69;5239856;28;20431;-44
2022/01/14 03:21:09;;;;;;;130.48;34.08;;;;;;;7.15;70.13;103696.59;5245965;28;21076;-45
2022/01/14 03:23:48;;;;;;;110.90;31.65;;;;;;;7.07;70.16;103691.66;5240180;28;20441;-44
2022/01/14 03:26:22;;;;;;;97.53;30.63;;;;;;;7.04;70.23;103685.66;5236154;28;20425;-48
2022/01/14 03:28:54;;;;;;;104.13;30.60;;;;;;;7.00;69.98;103689.28;5245350;28;20414;-45
2022/01/14 03:31:27;;;;;;;91.60;28.80;;;;;;;6.93;70.08;103689.50;5246687;28;20401;-45
2022/01/14 03:33:59;;;;;;;87.38;28.55;;;;;;;6.89;70.14;103693.19;5247813;28;20410;-44
2022/01/14 03:36:32;;;;;;;87.15;28.13;;;;;;;6.85;70.17;103680.22;5245125;28;20406;-45
2022/01/14 03:39:06;;;;;;;100.80;28.95;;;;;;;6.81;70.02;103684.69;5238105;28;20410;-43
2022/01/14 03:41:39;;;;;;;94.93;29.40;;;;;;;6.76;70.19;103681.41;5244748;28;20887;-43
2022/01/14 03:44:11;;;;;;;101.03;31.95;;;;;;;6.74;70.18;103680.59;5244724;28;20779;-43
2022/01/14 03:46:44;;;;;;;106.72;33.55;;;;;;;6.71;70.08;103675.44;5243115;28;20875;-45
2022/01/14 03:49:17;;;;;;;110.53;31.10;;;;;;;6.77;70.01;103690.13;5244028;28;20408;-44
2022/01/14 03:51:49;;;;;;;98.32;32.05;;;;;;;6.76;69.97;103676.16;5253515;28;20414;-43
2022/01/14 03:54:23;;;;;;;106.78;30.30;;;;;;;6.75;69.92;103677.06;5249807;28;20437;-42
2022/01/14 03:56:56;;;;;;;102.50;31.45;;;;;;;6.75;69.98;103674.44;5256403;28;20411;-43
2022/01/14 03:59:28;;;;;;;86.90;31.38;;;;;;;6.75;69.92;103671.81;5249581;28;20388;-43
2022/01/14 04:02:00;;;;;;;96.53;30.63;;;;;;;6.79;70.03;103676.03;5238175;28;20406;-44
2022/01/14 04:04:33;;;;;;;96.07;32.13;;;;;;;6.81;69.89;103673.34;5239758;28;20483;-45
2022/01/14 04:07:06;;;;;;;80.55;30.88;;;;;;;6.81;70.02;103665.47;5241453;28;20773;-43
2022/01/14 04:09:40;;;;;;;86.43;29.27;;;;;;;6.77;69.91;103672.59;5235550;28;20890;-43
2022/01/14 04:12:17;;;;;;;90.53;30.42;;;;;;;6.78;69.85;103668.19;5253581;28;20425;-44
2022/01/14 04:17:39;;;;;;;79.80;29.83;;;;;;;6.75;69.78;103658.69;5243661;28;20511;-43
2022/01/14 04:20:14;;;;;;;90.78;29.83;;;;;;;6.75;69.87;103657.81;5250354;28;20424;-43
2022/01/14 04:22:48;;;;;;;92.53;31.08;;;;;;;6.74;69.88;103672.72;5253584;28;20423;-45
2022/01/14 04:25:23;;;;;;;87.05;30.67;;;;;;;6.79;69.92;103665.53;5255883;28;20507;-45
2022/01/14 04:27:55;;;;;;;89.60;29.90;;;;;;;6.81;69.79;103647.94;5243144;28;20873;-44
2022/01/14 04:30:28;;;;;;;80.25;29.20;;;;;;;6.82;69.73;103646.19;5249941;28;20421;-44
2022/01/14 04:33:00;;;;;;;85.57;28.08;;;;;;;6.81;69.77;103652.34;5255598;28;20402;-45
2022/01/14 04:35:33;;;;;;;80.97;28.40;;;;;;;6.81;69.73;103649.69;5253424;28;20400;-44
2022/01/14 04:38:06;;;;;;;70.97;27.63;;;;;;;6.82;69.75;103640.94;5250817;28;20409;-44
2022/01/14 04:40:40;;;;;;;71.88;28.35;;;;;;;6.85;69.86;103633.78;5254890;28;20854;-44
2022/01/14 04:43:16;;;;;;;74.00;27.70;;;;;;;6.77;69.81;103613.97;5239328;28;20419;-45
2022/01/14 04:46:13;;;;;;;80.75;28.38;;;;;;;6.83;69.74;103622.47;5243073;28;20408;-45
2022/01/14 04:48:45;;;;;;;77.28;29.45;;;;;;;6.81;69.56;103620.81;5236919;28;20418;-43
2022/01/14 04:51:20;;;;;;;90.27;29.30;;;;;;;6.76;69.76;103618.38;5246223;28;20883;-44
2022/01/14 04:53:53;;;;;;;84.25;30.52;;;;;;;6.74;69.70;103614.94;5244354;28;20865;-43
2022/01/14 04:56:26;;;;;;;73.07;29.23;;;;;;;6.70;69.81;103618.59;5236107;28;20401;-43
2022/01/14 04:58:59;;;;;;;74.47;29.02;;;;;;;6.69;69.64;103619.50;5248270;28;20390;-44
2022/01/14 05:01:32;;;;;;;71.18;28.23;;;;;;;6.67;69.54;103618.72;5244899;28;20405;-44
2022/01/14 05:04:05;;;;;;;76.63;28.63;;;;;;;6.63;69.63;103614.50;5243729;28;20481;-45
2022/01/14 05:06:38;;;;;;;81.97;30.70;;;;;;;6.59;69.53;103610.25;5244794;28;20432;-43
2022/01/14 05:09:20;;;;;;;71.88;29.63;;;;;;;6.55;69.65;103617.38;5242704;28;20421;-48
2022/01/14 05:11:58;;;;;;;92.95;33.83;;;;;;;6.53;69.73;103613.09;5243514;28;20421;-43
2022/01/14 05:14:31;;;;;;;94.77;33.10;;;;;;;6.51;69.74;103607.06;5242363;28;20417;-47
2022/01/14 05:17:04;;;;;;;78.32;30.20;;;;;;;6.50;69.67;103610.56;5242627;28;20405;-47
2022/01/14 05:19:37;;;;;;;77.22;28.33;;;;;;;6.46;69.64;103609.81;5243043;28;20417;-43
2022/01/14 05:22:09;;;;;;;82.47;30.23;;;;;;;6.44;69.54;103612.53;5241727;28;20435;-43
2022/01/14 05:24:42;;;;;;;93.45;32.95;;;;;;;6.45;69.51;103613.38;5245174;28;20449;-43
2022/01/14 05:27:15;;;;;;;90.20;32.30;;;;;;;6.44;69.73;103617.78;5245790;28;20428;-44
2022/01/14 05:29:48;;;;;;;91.32;35.42;;;;;;;6.43;69.58;103613.41;5239166;28;20467;-44
2022/01/14 05:32:21;;;;;;;116.13;38.78;;;;;;;6.40;69.69;103616.16;5244271;28;20436;-42
2022/01/14 05:34:53;;;;;;;103.95;38.00;;;;;;;6.37;69.78;103616.25;5244517;28;20564;-43
2022/01/14 05:37:25;;;;;;;92.07;35.10;;;;;;;6.38;69.66;103611.84;5242946;28;20689;-43
2022/01/14 05:39:58;;;;;;;98.90;36.72;;;;;;;6.40;69.67;103604.78;5247910;28;20406;-43
2022/01/14 05:42:33;;;;;;;103.40;38.17;;;;;;;6.43;69.72;103610.78;5247984;28;20434;-44
2022/01/14 05:45:07;;;;;;;109.70;38.90;;;;;;;6.45;69.88;103614.22;5248552;28;20737;-43
2022/01/14 05:47:40;;;;;;;111.03;40.17;;;;;;;6.49;69.86;103622.00;5242962;28;20418;-43
2022/01/14 05:50:15;;;;;;;109.72;40.70;;;;;;;6.47;69.94;103612.41;5253623;28;20540;-43
2022/01/14 05:52:48;;;;;;;102.53;37.85;;;;;;;6.51;69.90;103617.56;5243564;28;20416;-44
2022/01/14 05:55:22;;;;;;;109.63;37.55;;;;;;;6.54;70.00;103626.19;5237569;28;20428;-44
2022/01/14 05:57:56;;;;;;;101.38;36.10;;;;;;;6.59;69.79;103626.84;5249064;28;20406;-44
2022/01/14 06:00:28;;;;;;;97.65;36.25;;;;;;;6.62;69.86;103623.25;5248557;28;20418;-43
2022/01/14 06:03:01;;;;;;;91.28;36.45;;;;;;;6.64;69.94;103630.16;5239887;28;20408;-43
2022/01/14 06:05:33;;;;;;;98.53;38.77;;;;;;;6.66;69.72;103622.25;5242799;28;20889;-45
2022/01/14 06:08:06;;;;;;;92.78;37.40;;;;;;;6.71;69.78;103615.03;5231162;28;20400;-43
2022/01/14 06:10:38;;;;;;;110.82;38.88;;;;;;;6.74;69.87;103628.06;5240291;28;20417;-44
2022/01/14 06:13:12;;;;;;;117.13;42.65;;;;;;;6.76;69.69;103631.50;5247363;28;20777;-44
2022/01/14 06:15:44;;;;;;;118.20;42.38;;;;;;;6.79;69.69;103618.25;5230877;28;20412;-42
2022/01/14 06:18:17;;;;;;;128.97;42.10;;;;;;;6.82;69.66;103622.53;5248960;28;20517;-44
2022/01/14 06:20:49;;;;;;;129.60;45.65;;;;;;;6.85;69.96;103628.53;5232552;28;20745;-43
2022/01/14 06:23:21;;;;;;;114.65;42.83;;;;;;;6.89;69.67;103611.72;5232137;28;20414;-42
2022/01/14 06:25:54;;;;;;;130.88;49.72;;;;;;;6.93;69.76;103625.59;5244726;28;20405;-43
2022/01/14 06:28:27;;;;;;;142.77;48.67;;;;;;;6.98;69.52;103630.69;5238683;28;20414;-43
2022/01/14 06:31:00;;;;;;;131.85;47.45;;;;;;;7.03;69.77;103626.13;5242540;28;20427;-43
2022/01/14 06:33:32;;;;;;;142.00;49.33;;;;;;;7.06;69.61;103615.47;5231801;28;20420;-45
2022/01/14 06:36:05;;;;;;;141.13;51.50;;;;;;;7.08;69.79;103618.91;5233776;28;20511;-44
2022/01/14 06:38:37;;;;;;;151.93;56.08;;;;;;;7.14;69.97;103629.19;5245657;28;20666;-44
2022/01/14 06:41:10;;;;;;;161.43;59.75;;;;;;;7.14;69.83;103613.44;5248568;28;20762;-49
2022/01/14 06:43:44;;;;;;;158.95;57.80;;;;;;;7.23;69.82;103630.63;5251015;28;20413;-44
2022/01/14 06:46:17;;;;;;;144.05;58.33;;;;;;;7.28;69.82;103628.69;5246792;28;20433;-49
2022/01/14 06:48:49;;;;;;;152.73;60.15;;;;;;;7.32;69.64;103623.22;5247168;28;20418;-43
2022/01/14 06:51:21;;;;;;;142.15;53.60;;;;;;;7.38;69.66;103612.47;5250797;28;20418;-45
2022/01/14 06:53:53;;;;;;;142.18;56.42;;;;;;;7.43;69.67;103614.06;5247835;28;20413;-45
2022/01/14 06:56:26;;;;;;;139.65;51.78;;;;;;;7.47;69.72;103628.81;5246523;28;20397;-44
2022/01/14 06:58:59;;;;;;;139.63;53.38;;;;;;;7.49;69.63;103619.06;5246278;28;20402;-43
2022/01/14 07:01:32;;;;;;;140.27;52.60;;;;;;;7.50;69.66;103620.78;5243246;28;20406;-50
2022/01/14 07:04:04;;;;;;;114.03;48.60;;;;;;;7.53;69.76;103621.53;5243551;28;20418;-47
2022/01/14 07:06:36;;;;;;;116.68;47.20;;;;;;;7.56;69.61;103631.06;5243890;28;20434;-44
2022/01/14 07:09:09;;;;;;;119.60;47.67;;;;;;;7.53;69.68;103625.94;5227609;28;20494;-44
2022/01/14 07:11:41;;;;;;;101.35;40.15;;;;;;;7.62;69.83;103638.72;5238077;28;20418;-45
2022/01/14 07:14:15;;;;;;;94.22;37.50;;;;;;;7.62;69.83;103647.47;5240440;28;20409;-45
2022/01/14 07:16:48;;;;;;;84.82;32.13;;;;;;;7.65;69.90;103653.50;5243390;28;20454;-43
2022/01/14 07:19:21;;;;;;;72.20;28.98;;;;;;;7.66;69.92;103652.59;5236202;28;20419;-45
2022/01/14 07:21:54;;;;;;;72.07;28.83;;;;;;;7.63;69.90;103649.16;5243015;28;20418;-47
2022/01/14 07:24:26;;;;;;;54.67;26.25;;;;;;;7.67;69.99;103643.78;5247545;28;20414;-43
2022/01/14 07:26:58;;;;;;;78.10;28.48;;;;;;;7.68;69.94;103635.84;5243611;28;20441;-45
2022/01/14 07:29:32;;;;;;;72.55;30.38;;;;;;;7.71;69.90;103634.84;5247849;28;20420;-49
2022/01/14 07:32:05;;;;;;;69.85;29.45;;;;;;;7.74;69.92;103646.13;5238339;28;20441;-46
2022/01/14 07:34:38;;;;;;;76.38;31.38;;;;;;;7.78;70.13;103647.69;5251032;28;20410;-46
2022/01/14 07:37:10;;;;;;;85.03;32.90;;;;;;;7.82;69.88;103649.28;5247750;28;20507;-44
2022/01/14 07:39:43;;;;;;;75.47;32.53;;;;;;;7.86;69.77;103658.75;5241810;28;20425;-44
2022/01/14 07:42:15;;;;;;;79.50;32.30;;;;;;;7.89;69.80;103652.50;5245230;28;20771;-45
2022/01/14 07:44:49;;;;;;;60.85;29.17;;;;;;;7.90;69.53;103656.88;5245906;28;20411;-45
2022/01/14 07:47:22;;;;;;;63.50;27.55;;;;;;;7.90;70.02;103655.97;5245315;28;20441;-45
2022/01/14 07:49:54;;;;;;;70.30;28.85;;;;;;;7.90;69.74;103661.25;5234551;28;20414;-46
2022/01/14 07:52:26;;;;;;;63.22;28.27;;;;;;;7.92;69.90;103662.03;5242298;28;20401;-45
2022/01/14 07:54:58;;;;;;;68.80;28.90;;;;;;;7.95;69.85;103661.91;5233900;28;20414;-48
2022/01/14 07:57:31;;;;;;;63.87;28.33;;;;;;;7.95;69.75;103656.66;5238672;28;20488;-45
2022/01/14 08:00:07;;;;;;;63.88;30.60;;;;;;;7.97;69.92;103657.47;5231210;28;20407;-50
2022/01/14 08:02:39;;;;;;;54.97;28.17;;;;;;;7.99;69.84;103650.34;5235439;28;20750;-45
2022/01/14 08:05:14;;;;;;;63.90;28.27;;;;;;;8.02;69.79;103652.84;5239394;28;20905;-43
2022/01/14 08:07:48;;;;;;;63.03;28.38;;;;;;;8.02;69.88;103655.47;5235740;28;20522;-46
2022/01/14 08:10:21;;;;;;;65.67;29.50;;;;;;;8.05;69.86;103640.44;5236901;28;20532;-44
2022/01/14 08:12:53;;;;;;;63.65;28.80;;;;;;;8.09;69.82;103660.44;5244420;28;21250;-44
2022/01/14 08:15:27;;;;;;;61.65;24.52;;;;;;;8.11;69.78;103644.56;5231060;28;20414;-44
2022/01/14 08:18:01;;;;;;;63.93;26.97;;;;;;;8.11;69.72;103649.81;5236357;28;20448;-47
2022/01/14 08:20:34;;;;;;;66.25;27.83;;;;;;;8.11;69.94;103649.81;5235801;28;20426;-47
2022/01/14 08:23:06;;;;;;;70.20;28.27;;;;;;;8.14;69.92;103654.09;5236043;28;20415;-47
2022/01/14 08:25:39;;;;;;;53.28;24.20;;;;;;;8.15;69.88;103659.31;5236454;28;20418;-48
2022/01/14 08:28:11;;;;;;;55.53;25.55;;;;;;;8.16;69.93;103668.94;5232849;28;20412;-45
2022/01/14 08:30:44;;;;;;;47.97;24.88;;;;;;;8.17;70.02;103678.53;5242309;28;20426;-46
2022/01/14 08:33:17;;;;;;;49.75;23.85;;;;;;;8.16;69.92;103679.47;5243756;28;20418;-45
2022/01/14 08:35:49;;;;;;;62.38;25.60;;;;;;;8.18;69.89;103682.03;5239541;28;20432;-45
2022/01/14 08:38:22;;;;;;;57.22;24.13;;;;;;;8.21;69.87;103672.22;5239857;28;20421;-44
2022/01/14 08:40:54;;;;;;;46.13;23.83;;;;;;;8.25;69.81;103663.28;5239584;28;20406;-47
2022/01/14 08:43:27;;;;;;;56.42;25.90;;;;;;;8.27;69.75;103666.69;5237222;28;20781;-46
2022/01/14 08:46:02;;;;;;;59.85;25.13;;;;;;;8.30;69.81;103698.16;5238658;28;20429;-44
2022/01/14 08:48:35;;;;;;;59.60;25.10;;;;;;;8.33;69.68;103665.59;5242113;28;20467;-48
2022/01/14 08:51:07;;;;;;;56.30;23.83;;;;;;;8.36;69.86;103672.47;5244478;28;20756;-45
2022/01/14 08:53:40;;;;;;;63.78;23.55;;;;;;;8.38;69.81;103663.63;5238725;28;20445;-43
2022/01/14 08:56:12;;;;;;;53.67;23.83;;;;;;;8.41;69.73;103667.91;5236533;28;20964;-47
2022/01/14 08:58:44;;;;;;;62.93;24.60;;;;;;;8.45;69.73;103648.41;5240224;28;20496;-47
2022/01/14 09:01:18;;;;;;;47.50;24.77;;;;;;;8.49;69.68;103660.53;5235586;28;20764;-44
2022/01/14 09:03:53;;;;;;;55.58;22.13;;;;;;;8.51;69.74;103658.69;5238960;28;20417;-47
2022/01/14 09:06:26;;;;;;;50.90;22.73;;;;;;;8.52;69.73;103655.16;5241526;28;20524;-48
2022/01/14 09:08:58;;;;;;;54.10;22.10;;;;;;;8.55;69.64;103665.53;5238198;28;20516;-45
2022/01/14 09:11:30;;;;;;;51.65;20.75;;;;;;;8.59;69.69;103666.25;5241062;28;20418;-48
2022/01/14 09:14:03;;;;;;;45.70;20.45;;;;;;;8.59;70.12;103666.25;5243894;28;20417;-46
2022/01/14 09:16:36;;;;;;;49.03;18.60;;;;;;;8.61;69.75;103651.22;5234961;28;20422;-45
2022/01/14 09:19:10;;;;;;;41.88;18.60;;;;;;;8.62;69.83;103651.16;5239119;28;20425;-44
2022/01/14 09:21:45;;;;;;;43.35;17.98;;;;;;;8.63;69.86;103654.66;5242211;28;20756;-50
2022/01/14 09:24:17;;;;;;;43.05;16.20;;;;;;;8.63;69.77;103658.13;5243205;28;20416;-44
2022/01/14 09:26:49;;;;;;;49.80;16.10;;;;;;;8.66;69.81;103655.38;5245835;28;20451;-43
2022/01/14 09:29:22;;;;;;;40.53;17.10;;;;;;;8.47;69.79;103614.97;5243736;28;20514;-58
2022/01/14 09:31:55;;;;;;;42.20;17.85;;;;;;;8.75;69.71;103657.59;5240757;28;20398;-46
2022/01/14 09:34:28;;;;;;;40.65;15.95;;;;;;;8.62;69.62;103638.00;5242198;28;20436;-44
2022/01/14 09:37:00;;;;;;;47.92;16.63;;;;;;;8.80;69.70;103660.03;5241308;28;20788;-44
2022/01/14 09:39:33;;;;;;;43.13;16.25;;;;;;;8.81;69.80;103674.06;5243845;28;20524;-45
2022/01/14 09:42:07;;;;;;;39.33;14.60;;;;;;;8.84;69.79;103666.03;5237328;28;20806;-43
2022/01/14 09:44:39;;;;;;;36.70;15.32;;;;;;;8.84;69.79;103666.03;5246242;28;20907;-44
2022/01/14 09:47:18;;;;;;;36.55;13.88;;;;;;;8.83;69.58;103674.88;5242139;28;20410;-44
2022/01/14 09:49:50;;;;;;;37.00;13.27;;;;;;;8.80;69.94;103669.72;5240350;28;20418;-47
2022/01/14 09:52:23;;;;;;;29.75;12.68;;;;;;;8.77;70.03;103670.72;5242922;28;20834;-44
2022/01/14 09:54:55;;;;;;;33.65;12.07;;;;;;;8.73;70.07;103667.38;5240454;28;20420;-45
2022/01/14 09:57:27;;;;;;;29.07;11.63;;;;;;;8.76;70.05;103671.63;5237692;28;20554;-44
2022/01/14 10:00:00;;;;;;;26.30;11.43;;;;;;;8.81;69.98;103671.44;5242062;28;20772;-46
2022/01/14 10:02:37;;;;;;;29.27;11.50;;;;;;;8.72;69.95;103673.53;5241358;28;20419;-47
2022/01/14 10:05:30;;;;;;;31.60;11.43;;;;;;;8.85;69.93;103675.63;5232297;28;20505;-45
2022/01/14 10:08:13;;;;;;;38.55;12.77;;;;;;;8.88;69.73;103683.41;5237394;28;20414;-46
2022/01/14 10:10:48;;;;;;;35.78;11.48;;;;;;;8.65;69.74;103651.03;5240718;28;20425;-44
2022/01/14 10:13:23;;;;;;;33.33;11.00;;;;;;;8.90;69.92;103686.84;5240731;28;20543;-44
2022/01/14 10:16:02;;;;;;;31.58;11.30;;;;;;;8.94;69.76;103693.66;5240209;28;20882;-44
2022/01/14 10:18:39;;;;;;;31.20;12.13;;;;;;;8.96;69.65;103681.28;5240150;28;20894;-47
2022/01/14 10:21:11;;;;;;;30.80;11.75;;;;;;;8.96;69.83;103681.28;5238398;28;20418;-44
2022/01/14 10:23:47;;;;;;;29.48;12.18;;;;;;;8.96;69.86;103695.31;5239471;28;21086;-45
2022/01/14 10:26:20;;;;;;;30.90;11.20;;;;;;;8.95;69.72;103690.09;5236837;28;20787;-47
2022/01/14 10:29:00;;;;;;;26.88;11.70;;;;;;;8.93;69.74;103689.34;5242403;28;20461;-46
2022/01/14 10:31:34;;;;;;;30.85;11.43;;;;;;;8.94;69.79;103685.75;5239763;28;20446;-43
2022/01/14 10:34:17;;;;;;;35.42;11.30;;;;;;;8.99;69.59;103692.53;5237301;28;20424;-45
2022/01/14 10:36:51;;;;;;;29.92;12.13;;;;;;;9.06;69.47;103685.19;5232077;28;20419;-43
2022/01/14 10:39:26;;;;;;;29.93;11.57;;;;;;;9.10;69.41;103684.13;5238896;28;21251;-46
2022/01/14 10:41:58;;;;;;;27.75;11.52;;;;;;;9.13;69.44;103684.00;5233439;28;20423;-44
2022/01/14 10:44:34;;;;;;;32.53;12.60;;;;;;;9.10;69.47;103689.41;5235368;28;20778;-48
2022/01/14 10:47:16;;;;;;;25.65;11.10;;;;;;;9.17;69.37;103680.31;5235267;28;20406;-45
2022/01/14 10:49:56;;;;;;;36.00;10.70;;;;;;;9.12;69.20;103674.38;5234591;28;20512;-44
2022/01/14 10:52:28;;;;;;;24.50;10.90;;;;;;;9.26;69.06;103686.06;5237004;28;21027;-45
2022/01/14 10:55:02;;;;;;;28.60;10.90;;;;;;;9.30;68.99;103691.13;5236743;28;20429;-55
2022/01/14 10:57:35;;;;;;;41.65;12.98;;;;;;;9.32;69.04;103680.50;5235763;28;20904;-47
2022/01/14 11:00:20;;;;;;;31.73;11.43;;;;;;;9.35;68.95;103683.88;5233867;28;20410;-44
2022/01/14 11:02:53;;;;;;;43.42;12.18;;;;;;;9.39;68.64;103684.59;5238947;28;20423;-44
2022/01/14 11:05:28;;;;;;;36.13;11.40;;;;;;;9.42;68.82;103687.06;5238364;28;20528;-45
2022/01/14 11:08:01;;;;;;;24.13;9.75;;;;;;;9.42;68.58;103673.88;5234225;28;20565;-44
2022/01/14 11:10:37;;;;;;;22.20;10.20;;;;;;;9.44;68.74;103687.84;5239224;28;20408;-44
2022/01/14 11:13:11;;;;;;;28.85;10.50;;;;;;;9.51;68.75;103678.72;5236995;28;20917;-51
2022/01/14 11:15:43;;;;;;;32.42;9.63;;;;;;;9.54;68.59;103673.31;5242417;28;20410;-47
2022/01/14 11:18:16;;;;;;;28.27;8.82;;;;;;;9.57;68.43;103677.56;5234251;28;20432;-44
2022/01/14 11:23:36;;;;;;;24.35;8.57;;;;;;;9.63;68.25;103679.91;5196295;28;20434;-48
2022/01/14 11:26:46;;;;;;;23.05;9.55;;;;;;;9.65;68.29;103673.63;5234713;28;20762;-44
2022/01/14 11:29:22;;;;;;;25.17;8.65;;;;;;;9.57;68.39;103662.59;5236509;28;20526;-44
2022/01/14 11:31:59;;;;;;;30.92;10.25;;;;;;;9.72;68.16;103678.59;5235644;28;20436;-46
2022/01/14 11:34:36;;;;;;;26.58;9.23;;;;;;;9.77;67.98;103673.97;5235322;28;20882;-43
2022/01/14 11:37:14;;;;;;;26.40;8.95;;;;;;;9.74;67.93;103674.13;5246268;28;20390;-44
2022/01/14 11:39:57;;;;;;;23.83;7.95;;;;;;;9.77;67.88;103679.25;5250149;28;20876;-45
2022/01/14 11:42:45;;;;;;;25.95;8.07;;;;;;;9.81;67.83;103668.44;5235138;28;20465;-43
2022/01/14 11:45:19;;;;;;;20.50;8.75;;;;;;;9.86;67.71;103670.88;5242808;28;20410;-44
2022/01/14 11:48:02;;;;;;;27.95;8.05;;;;;;;9.83;67.66;103652.56;5246980;28;20410;-44
2022/01/14 11:50:49;;;;;;;24.70;7.80;;;;;;;9.90;67.55;103657.44;5234349;28;20404;-47
2022/01/14 11:53:42;;;;;;;26.92;9.23;;;;;;;9.97;67.37;103657.97;5250639;28;20410;-43
2022/01/14 11:56:54;;;;;;;30.80;8.65;;;;;;;9.97;67.30;103655.34;5242117;28;20409;-44
2022/01/14 11:59:51;;;;;;;25.65;8.70;;;;;;;9.97;67.26;103660.63;5224015;28;20908;-43
2022/01/14 12:02:34;;;;;;;24.02;8.50;;;;;;;9.92;67.27;103638.91;5234869;28;23435;-44
2022/01/14 12:05:20;;;;;;;25.23;9.80;;;;;;;9.95;67.10;103638.75;5229285;28;20412;-44
2022/01/14 12:08:24;;;;;;;21.95;8.75;;;;;;;10.02;67.16;103658.63;5243181;28;20908;-44